createdAt,value
2023-03-22T00:00:46.827Z,4.95
2023-03-22T00:03:19.965Z,4.95
2023-03-22T00:05:58.437Z,4.95
2023-03-22T00:08:31.437Z,4.90
2023-03-22T00:11:04.972Z,4.88
2023-03-22T00:13:39.726Z,4.86
2023-03-22T00:16:12.727Z,4.83
2023-03-22T00:18:46.302Z,4.79
2023-03-22T00:21:19.674Z,4.75
2023-03-22T00:23:52.838Z,4.72
2023-03-22T00:26:25.852Z,4.70
2023-03-22T00:29:00.731Z,4.66
2023-03-22T00:31:33.734Z,4.63
2023-03-22T00:34:08.248Z,4.60
2023-03-22T00:36:41.215Z,4.58
2023-03-22T00:39:14.186Z,4.56
2023-03-22T00:41:47.753Z,4.53
2023-03-22T00:44:22.092Z,4.49
2023-03-22T00:46:55.217Z,4.48
2023-03-22T00:49:28.434Z,4.47
2023-03-22T00:52:01.635Z,4.47
2023-03-22T00:54:34.607Z,4.45
2023-03-22T00:57:07.968Z,4.46
2023-03-22T00:59:43.015Z,4.45
2023-03-22T01:02:17.449Z,4.46
2023-03-22T01:04:50.493Z,4.47
2023-03-22T01:07:24.149Z,4.47
2023-03-22T01:09:57.555Z,4.50
2023-03-22T01:12:30.718Z,4.52
2023-03-22T01:15:05.929Z,4.55
2023-03-22T01:17:39.032Z,4.56
2023-03-22T01:20:13.353Z,4.58
2023-03-22T01:22:46.713Z,4.60
2023-03-22T01:25:20.256Z,4.61
2023-03-22T01:27:53.948Z,4.63
2023-03-22T01:30:28.454Z,4.64
2023-03-22T01:33:01.512Z,4.65
2023-03-22T01:35:35.564Z,4.66
2023-03-22T01:38:08.857Z,4.69
2023-03-22T01:40:47.205Z,4.72
2023-03-22T01:43:20.360Z,4.76
2023-03-22T01:45:55.800Z,4.76
2023-03-22T01:48:36.620Z,4.76
2023-03-22T01:51:13.216Z,4.75
2023-03-22T01:54:18.102Z,4.75
2023-03-22T01:56:52.564Z,4.74
2023-03-22T01:59:36.632Z,4.76
2023-03-22T02:02:20.271Z,4.76
2023-03-22T02:05:04.150Z,4.78
2023-03-22T02:07:38.521Z,4.78
2023-03-22T02:10:13.420Z,4.78
2023-03-22T02:13:14.678Z,4.81
2023-03-22T02:16:04.281Z,4.80
2023-03-22T02:19:17.554Z,4.82
2023-03-22T02:22:21.901Z,4.82
2023-03-22T02:25:17.690Z,4.79
2023-03-22T02:28:13.392Z,4.79
2023-03-22T02:31:24.462Z,4.77
2023-03-22T02:34:48.177Z,4.78
2023-03-22T02:37:43.776Z,4.76
2023-03-22T02:40:22.624Z,4.70
2023-03-22T02:43:02.102Z,4.69
2023-03-22T02:45:42.436Z,4.67
2023-03-22T02:48:23.914Z,4.66
2023-03-22T02:51:01.636Z,4.64
2023-03-22T02:53:40.837Z,4.62
2023-03-22T02:56:20.452Z,4.61
2023-03-22T02:58:56.629Z,4.58
2023-03-22T03:01:33.083Z,4.57
2023-03-22T03:04:10.740Z,4.57
2023-03-22T03:06:47.207Z,4.55
2023-03-22T03:09:22.404Z,4.55
2023-03-22T03:11:56.942Z,4.54
2023-03-22T03:14:32.016Z,4.53
2023-03-22T03:17:16.565Z,4.55
2023-03-22T03:20:01.518Z,4.55
2023-03-22T03:22:45.181Z,4.52
2023-03-22T03:25:26.048Z,4.51
2023-03-22T03:28:10.070Z,4.49
2023-03-22T03:30:50.540Z,4.46
2023-03-22T03:33:28.992Z,4.43
2023-03-22T03:36:06.808Z,4.41
2023-03-22T03:38:43.783Z,4.42
2023-03-22T03:41:19.494Z,4.41
2023-03-22T03:43:56.164Z,4.40
2023-03-22T03:46:29.618Z,4.40
2023-03-22T03:49:05.774Z,4.39
2023-03-22T03:51:48.598Z,4.39
2023-03-22T03:54:21.774Z,4.36
2023-03-22T03:56:55.192Z,4.38
2023-03-22T03:59:29.662Z,4.38
2023-03-22T04:02:05.957Z,4.38
2023-03-22T04:04:39.843Z,4.41
2023-03-22T04:07:13.084Z,4.44
2023-03-22T04:09:46.270Z,4.47
2023-03-22T04:12:27.394Z,4.49
2023-03-22T04:15:20.234Z,4.51
2023-03-22T04:17:58.816Z,4.52
2023-03-22T04:20:34.470Z,4.55
2023-03-22T04:23:07.522Z,4.56
2023-03-22T04:25:41.886Z,4.57
2023-03-22T04:28:19.865Z,4.57
2023-03-22T04:30:57.816Z,4.60
2023-03-22T04:33:56.405Z,4.63
2023-03-22T04:36:39.555Z,4.70
2023-03-22T04:39:31.177Z,4.80
2023-03-22T04:42:31.912Z,4.89
2023-03-22T04:45:13.664Z,4.96
2023-03-22T04:47:51.333Z,5.05
2023-03-22T04:50:24.324Z,5.14
2023-03-22T04:53:03.197Z,5.23
2023-03-22T04:55:37.586Z,5.31
2023-03-22T04:58:10.577Z,5.38
2023-03-22T05:00:43.525Z,5.45
2023-03-22T05:03:19.301Z,5.53
2023-03-22T05:05:53.670Z,5.62
2023-03-22T05:08:29.980Z,5.72
2023-03-22T05:11:08.087Z,5.81
2023-03-22T05:13:41.938Z,5.91
2023-03-22T05:16:15.137Z,6.11
2023-03-22T05:18:57.273Z,6.09
2023-03-22T05:21:36.829Z,6.13
2023-03-22T05:24:12.227Z,6.15
2023-03-22T05:26:47.525Z,6.16
2023-03-22T05:29:21.349Z,6.18
2023-03-22T05:32:18.883Z,6.21
2023-03-22T05:34:55.231Z,6.23
2023-03-22T05:37:38.214Z,6.27
2023-03-22T05:40:11.798Z,6.27
2023-03-22T05:42:50.489Z,6.27
2023-03-22T05:45:32.860Z,6.28
2023-03-22T05:48:16.929Z,6.30
2023-03-22T05:50:51.496Z,6.31
2023-03-22T05:53:24.835Z,6.36
2023-03-22T05:56:03.433Z,6.42
2023-03-22T05:58:39.771Z,6.48
2023-03-22T06:01:17.198Z,6.54
2023-03-22T06:03:53.284Z,6.62
2023-03-22T06:06:53.886Z,6.70
2023-03-22T06:09:50.695Z,6.80
2023-03-22T06:12:29.985Z,6.87
2023-03-22T06:15:10.958Z,6.95
2023-03-22T06:18:08.926Z,7.02
2023-03-22T06:20:46.245Z,7.04
2023-03-22T06:23:26.862Z,7.08
2023-03-22T06:26:00.463Z,7.11
2023-03-22T06:28:33.583Z,7.10
2023-03-22T06:31:09.321Z,7.11
2023-03-22T06:33:58.141Z,7.09
2023-03-22T06:36:42.479Z,7.06
2023-03-22T06:39:24.473Z,7.08
2023-03-22T06:41:57.752Z,7.08
2023-03-22T06:44:31.214Z,7.12
2023-03-22T06:47:39.712Z,7.16
2023-03-22T06:50:29.480Z,7.18
2023-03-22T06:53:22.778Z,7.22
2023-03-22T06:56:00.321Z,7.26
2023-03-22T06:58:34.500Z,7.31
2023-03-22T07:01:07.753Z,7.48
2023-03-22T07:03:42.768Z,7.43
2023-03-22T07:06:20.013Z,7.46
2023-03-22T07:08:55.911Z,7.50
2023-03-22T07:11:36.095Z,7.55
2023-03-22T07:14:09.927Z,7.60
2023-03-22T07:16:56.826Z,7.62
2023-03-22T07:19:31.369Z,7.77
2023-03-22T07:22:07.782Z,7.70
2023-03-22T07:24:53.774Z,7.74
2023-03-22T07:27:30.773Z,7.79
2023-03-22T07:30:04.242Z,7.86
2023-03-22T07:32:41.099Z,7.90
2023-03-22T07:35:18.913Z,8.00
2023-03-22T07:37:53.185Z,8.08
2023-03-22T07:40:32.844Z,8.16
2023-03-22T07:43:07.611Z,8.22
2023-03-22T07:45:49.431Z,8.27
2023-03-22T07:48:45.691Z,8.32
2023-03-22T07:51:37.509Z,8.37
2023-03-22T07:54:14.018Z,8.42
2023-03-22T07:56:51.291Z,8.42
2023-03-22T07:59:25.709Z,8.43
2023-03-22T08:01:59.542Z,8.44
2023-03-22T08:04:39.039Z,8.45
2023-03-22T08:07:31.682Z,8.47
2023-03-22T08:10:05.949Z,8.49
2023-03-22T08:12:40.344Z,8.49
2023-03-22T08:15:26.770Z,8.50
2023-03-22T08:18:00.697Z,8.51
2023-03-22T08:20:42.041Z,8.52
2023-03-22T08:23:28.823Z,8.53
2023-03-22T08:26:40.486Z,8.54
2023-03-22T08:29:23.205Z,8.59
2023-03-22T08:32:02.160Z,8.64
2023-03-22T08:34:38.503Z,8.73
2023-03-22T08:37:13.086Z,8.85
2023-03-22T08:39:47.918Z,8.99
2023-03-22T08:42:31.220Z,9.09
2023-03-22T08:45:04.532Z,9.17
2023-03-22T08:47:41.524Z,9.24
2023-03-22T08:50:15.382Z,9.33
2023-03-22T08:53:14.463Z,9.42
2023-03-22T08:55:52.552Z,9.50
2023-03-22T08:58:47.526Z,9.61
2023-03-22T09:01:43.778Z,9.73
2023-03-22T09:04:20.369Z,9.85
2023-03-22T09:06:53.561Z,10.00
2023-03-22T09:09:26.857Z,10.12
2023-03-22T09:12:00.809Z,10.16
2023-03-22T09:14:33.882Z,10.23
2023-03-22T09:17:06.982Z,10.39
2023-03-22T09:19:41.464Z,10.81
2023-03-22T09:22:14.633Z,11.14
2023-03-22T09:24:52.995Z,11.36
2023-03-22T09:27:26.496Z,11.53
2023-03-22T09:30:00.160Z,11.71
2023-03-22T09:32:35.978Z,11.96
2023-03-22T09:35:12.302Z,11.98
2023-03-22T09:37:56.256Z,12.04
2023-03-22T09:40:32.425Z,12.04
2023-03-22T09:43:13.075Z,12.03
2023-03-22T09:45:51.207Z,11.99
2023-03-22T09:48:31.524Z,11.92
2023-03-22T09:51:08.727Z,11.87
2023-03-22T09:53:41.768Z,11.84
2023-03-22T09:56:18.913Z,11.85
2023-03-22T09:58:57.042Z,11.85
2023-03-22T10:01:37.449Z,11.85
2023-03-22T10:04:26.474Z,11.82
2023-03-22T10:07:07.997Z,11.77
2023-03-22T10:09:50.622Z,11.73
2023-03-22T10:12:29.372Z,11.68
2023-03-22T10:15:06.897Z,11.61
2023-03-22T10:17:43.333Z,11.58
2023-03-22T10:20:28.662Z,11.53
2023-03-22T10:23:07.443Z,11.44
2023-03-22T10:25:42.480Z,11.40
2023-03-22T10:28:20.498Z,11.42
2023-03-22T10:30:56.528Z,11.50
2023-03-22T10:33:35.593Z,11.66
2023-03-22T10:36:14.948Z,11.93
2023-03-22T10:38:51.548Z,12.14
2023-03-22T10:41:26.826Z,12.27
2023-03-22T10:44:03.058Z,12.41
2023-03-22T10:46:40.719Z,12.53
2023-03-22T10:49:19.996Z,12.60
2023-03-22T10:51:57.476Z,12.60
2023-03-22T10:54:32.321Z,12.55
2023-03-22T10:57:05.522Z,12.52
2023-03-22T10:59:49.265Z,12.51
2023-03-22T11:02:25.069Z,12.53
2023-03-22T11:05:00.237Z,12.57
2023-03-22T11:07:36.032Z,12.61
2023-03-22T11:10:24.019Z,12.67
2023-03-22T11:13:12.733Z,12.67
2023-03-22T11:15:54.438Z,12.70
2023-03-22T11:18:32.419Z,12.74
2023-03-22T11:21:08.434Z,12.81
2023-03-22T11:23:47.194Z,12.89
2023-03-22T11:26:29.179Z,13.00
2023-03-22T11:29:07.829Z,13.18
2023-03-22T11:31:55.828Z,13.55
2023-03-22T11:34:31.724Z,14.01
2023-03-22T11:37:09.371Z,14.51
2023-03-22T11:39:48.398Z,15.03
2023-03-22T11:42:22.857Z,15.94
2023-03-22T11:44:57.226Z,16.96
2023-03-22T11:47:35.758Z,17.55
2023-03-22T11:50:22.243Z,17.82
2023-03-22T11:52:56.897Z,18.46
2023-03-22T11:55:32.652Z,19.57
2023-03-22T11:58:07.835Z,21.20
2023-03-22T12:00:42.930Z,22.99
2023-03-22T12:03:19.063Z,24.57
2023-03-22T12:05:53.720Z,26.17
2023-03-22T12:08:32.751Z,27.35
2023-03-22T12:11:08.656Z,27.87
2023-03-22T12:13:49.599Z,28.53
2023-03-22T12:16:27.765Z,29.17
2023-03-22T12:19:13.741Z,29.73
2023-03-22T12:21:51.287Z,30.27
2023-03-22T12:24:28.465Z,30.28
2023-03-22T12:27:05.944Z,28.93
2023-03-22T12:29:43.910Z,27.49
2023-03-22T12:32:23.313Z,26.30
2023-03-22T12:35:09.103Z,25.21
2023-03-22T12:37:52.424Z,24.21
2023-03-22T12:40:28.527Z,23.45
2023-03-22T12:43:08.725Z,23.07
2023-03-22T12:45:49.106Z,22.44
2023-03-22T12:48:32.806Z,21.77
2023-03-22T12:51:09.906Z,21.17
2023-03-22T12:53:45.449Z,20.63
2023-03-22T12:56:23.070Z,20.12
2023-03-22T12:58:59.369Z,19.55
2023-03-22T13:01:38.226Z,19.17
2023-03-22T13:04:50.428Z,19.04
2023-03-22T13:07:51.488Z,19.15
2023-03-22T13:11:01.954Z,19.13
2023-03-22T13:13:55.956Z,18.91
2023-03-22T13:16:50.428Z,18.77
2023-03-22T13:19:31.532Z,18.59
2023-03-22T13:22:22.534Z,18.33
2023-03-22T13:25:27.046Z,18.07
2023-03-22T13:28:03.451Z,17.73
2023-03-22T13:30:50.166Z,17.46
2023-03-22T13:33:27.902Z,17.23
2023-03-22T13:36:07.024Z,17.03
2023-03-22T13:38:43.607Z,16.85
2023-03-22T13:41:23.692Z,16.69
2023-03-22T13:43:58.862Z,16.62
2023-03-22T13:46:51.561Z,16.68
2023-03-22T13:49:49.334Z,16.84
2023-03-22T13:52:34.995Z,16.97
2023-03-22T13:55:36.853Z,17.14
2023-03-22T13:58:36.153Z,17.38
2023-03-22T14:01:15.843Z,17.53
2023-03-22T14:03:51.704Z,17.51
2023-03-22T14:06:28.812Z,17.45
2023-03-22T14:09:10.532Z,17.43
2023-03-22T14:11:48.749Z,17.39
2023-03-22T14:14:27.379Z,17.35
2023-03-22T14:17:05.024Z,17.31
2023-03-22T14:19:38.287Z,17.30
